Meath Park, Canada
Current Conditions -  °F | °C
As of 9:00 AM on Tuesday 21 Oct 2014 (Local Time) from CYPA Reporting Station
Scattered Clouds Scattered Clouds  
Wind Chill: 39°   Ceiling: Unl
Heat Index: 39°   Visibility: 15mi
Dew Point: 39°   Wind: 2mph
Humidity: 100%   Direction: NA
Pressure: 29.56"   Gusts: NA
Location:  53.45°N, 105.37°W
Report Text: CYPA 211500Z VRB02KT 15SM SCT250 04/04 A2956 RMK CI4 SLP026
Loading
Personal Weather Stations






























Interactive Weather Map
Tropical Storm Tracking
New forecast layout! Learn more

10-Day Weather Forecast

Advertisements
Track Severe Weather on mobile